Time;durP1;ratioP1;P1;durP2;ratioP2;P2;SDS_P1;SDS_P2;PMS_P1;PMS_P2;Temp;Humidity;BMP_temperature;BMP_pressure;BME280_temperature;BME280_humidity;BME280_pressure;Samples;Min_cycle;Max_cycle;Signal;HPM_P1;HPM_P2
2024/01/04 00:00:12;;;;;;;;;;;8.80;90.00;;;;;;5090547;27;19932;-63
2024/01/04 00:02:45;;;;;;;;;;;8.80;90.00;;;;;;5094656;28;19928;-63
2024/01/04 00:05:18;;;;;;;;;;;8.80;89.90;;;;;;5088643;28;19928;-63
2024/01/04 00:07:51;;;;;;;;;;;8.80;90.00;;;;;;5082938;28;20755;-62
2024/01/04 00:10:25;;;;;;;;;;;8.80;90.00;;;;;;5089261;28;20801;-63
2024/01/04 00:12:59;;;;;;;;;;;8.80;89.90;;;;;;5100213;27;20010;-64
2024/01/04 00:15:32;;;;;;;;;;;8.80;89.90;;;;;;5091771;28;20383;-64
2024/01/04 00:18:05;;;;;;;;;;;8.80;89.90;;;;;;5087690;28;20624;-62
2024/01/04 00:20:38;;;;;;;;;;;8.80;89.90;;;;;;5081938;28;20018;-62
2024/01/04 00:23:11;;;;;;;;;;;8.80;90.00;;;;;;5070863;28;20011;-63
2024/01/04 00:25:46;;;;;;;;;;;8.80;89.80;;;;;;5069860;28;19924;-64
2024/01/04 00:28:19;;;;;;;;;;;8.80;89.70;;;;;;5069444;28;20379;-63
2024/01/04 00:30:52;;;;;;;;;;;8.80;89.80;;;;;;5073977;28;20022;-64
2024/01/04 00:33:25;;;;;;;;;;;8.90;89.70;;;;;;5061268;28;19935;-62
2024/01/04 00:35:58;;;;;;;;;;;8.80;89.50;;;;;;5067128;28;19928;-61
2024/01/04 00:38:31;;;;;;;;;;;8.80;89.60;;;;;;5049122;28;19929;-63
2024/01/04 00:41:06;;;;;;;;;;;8.70;89.50;;;;;;5068377;28;20015;-61
2024/01/04 00:43:45;;;;;;;;;;;8.80;89.50;;;;;;5051828;28;19931;-63
2024/01/04 00:46:19;;;;;;;;;;;8.70;89.50;;;;;;5078013;28;20445;-61
2024/01/04 00:48:52;;;;;;;;;;;8.70;89.50;;;;;;5083916;28;20497;-61
2024/01/04 00:51:25;;;;;;;;;;;8.70;89.60;;;;;;5069742;28;20331;-61
2024/01/04 00:53:58;;;;;;;;;;;8.70;89.60;;;;;;5066947;28;19954;-61
2024/01/04 00:56:33;;;;;;;;;;;8.70;89.50;;;;;;5069683;28;19959;-63
2024/01/04 00:59:06;;;;;;;;;;;8.70;89.50;;;;;;5055383;28;20025;-63
2024/01/04 01:01:39;;;;;;;;;;;8.70;89.40;;;;;;5063035;28;19924;-62
2024/01/04 01:04:12;;;;;;;;;;;8.70;89.40;;;;;;5067959;28;20007;-63
2024/01/04 01:06:45;;;;;;;;;;;8.70;89.30;;;;;;5068371;28;19928;-61
2024/01/04 01:09:18;;;;;;;;;;;8.70;89.20;;;;;;5068831;28;19936;-61
2024/01/04 01:11:52;;;;;;;;;;;8.70;89.30;;;;;;5069160;28;20030;-61
2024/01/04 01:14:26;;;;;;;;;;;8.70;89.40;;;;;;5070356;28;20005;-63
2024/01/04 01:17:00;;;;;;;;;;;8.70;89.40;;;;;;5067254;28;19973;-63
2024/01/04 01:19:33;;;;;;;;;;;8.60;89.40;;;;;;5074512;28;20357;-65
2024/01/04 01:22:06;;;;;;;;;;;8.60;89.30;;;;;;5065502;28;20302;-62
2024/01/04 01:24:40;;;;;;;;;;;8.70;89.20;;;;;;5098617;28;19928;-62
2024/01/04 01:27:15;;;;;;;;;;;8.70;89.10;;;;;;5076493;28;20015;-64
2024/01/04 01:29:49;;;;;;;;;;;8.60;89.00;;;;;;5079538;28;19928;-62
2024/01/04 01:32:22;;;;;;;;;;;8.70;89.00;;;;;;5078132;28;19952;-61
2024/01/04 01:34:57;;;;;;;;;;;8.60;88.80;;;;;;5099453;28;19934;-62
2024/01/04 01:37:30;;;;;;;;;;;8.60;88.70;;;;;;5102792;28;20283;-61
2024/01/04 01:40:03;;;;;;;;;;;8.60;88.70;;;;;;5101996;28;19963;-62
2024/01/04 01:42:38;;;;;;;;;;;8.70;88.70;;;;;;5103441;28;19928;-63
2024/01/04 01:45:12;;;;;;;;;;;8.70;88.60;;;;;;5101317;28;19932;-59
2024/01/04 01:47:46;;;;;;;;;;;8.60;88.50;;;;;;5078981;28;20391;-59
2024/01/04 01:50:20;;;;;;;;;;;8.70;88.50;;;;;;5103854;28;19928;-61
2024/01/04 01:52:55;;;;;;;;;;;8.70;88.40;;;;;;5100465;28;19935;-60
2024/01/04 01:55:28;;;;;;;;;;;8.70;88.50;;;;;;5109251;28;19931;-59
2024/01/04 01:58:04;;;;;;;;;;;8.60;88.40;;;;;;5099002;28;19923;-59
2024/01/04 02:00:37;;;;;;;;;;;8.60;88.50;;;;;;5095549;28;20272;-60
2024/01/04 02:03:11;;;;;;;;;;;8.60;88.60;;;;;;5103157;28;19963;-60
2024/01/04 02:05:44;;;;;;;;;;;8.60;88.70;;;;;;5077041;28;19924;-60
2024/01/04 02:08:17;;;;;;;;;;;8.60;88.90;;;;;;5105213;28;19934;-60
2024/01/04 02:10:50;;;;;;;;;;;8.60;89.10;;;;;;5105324;28;19932;-63
2024/01/04 02:13:24;;;;;;;;;;;8.60;89.10;;;;;;5101339;28;19928;-60
2024/01/04 02:15:58;;;;;;;;;;;8.60;89.10;;;;;;5098499;28;20003;-60
2024/01/04 02:18:31;;;;;;;;;;;8.60;89.20;;;;;;5091099;28;20026;-59
2024/01/04 02:20:58;;;;;;;;;;;8.60;89.30;;;;;;5102393;28;20366;-60
2024/01/04 02:23:32;;;;;;;;;;;8.60;89.20;;;;;;5079775;28;19936;-60
2024/01/04 02:26:06;;;;;;;;;;;8.60;89.30;;;;;;5094141;28;19928;-61
2024/01/04 02:28:39;;;;;;;;;;;8.60;89.30;;;;;;5103760;28;19928;-59
2024/01/04 02:31:12;;;;;;;;;;;8.60;89.30;;;;;;5096663;28;19969;-60
2024/01/04 02:33:45;;;;;;;;;;;8.60;89.30;;;;;;5101216;28;20656;-60
2024/01/04 02:36:18;;;;;;;;;;;8.60;89.30;;;;;;5096402;28;20387;-58
2024/01/04 02:38:52;;;;;;;;;;;8.60;89.30;;;;;;5074550;28;19932;-60
2024/01/04 02:41:26;;;;;;;;;;;8.60;89.30;;;;;;5104036;28;20015;-60
2024/01/04 02:43:59;;;;;;;;;;;8.60;89.30;;;;;;5106253;28;19967;-61
2024/01/04 02:46:26;;;;;;;;;;;8.60;89.20;;;;;;5104538;28;19928;-60
2024/01/04 02:48:59;;;;;;;;;;;8.60;89.20;;;;;;5105563;28;20035;-60
2024/01/04 02:51:38;;;;;;;;;;;8.60;89.10;;;;;;5108993;28;20339;-59
2024/01/04 02:54:13;;;;;;;;;;;8.50;89.10;;;;;;5102109;28;20404;-72
2024/01/04 02:56:47;;;;;;;;;;;8.60;89.00;;;;;;5105185;28;19955;-70
2024/01/04 02:59:20;;;;;;;;;;;8.60;89.00;;;;;;5106968;28;19935;-71
2024/01/04 03:01:53;;;;;;;;;;;8.60;88.90;;;;;;5100407;28;20009;-72
2024/01/04 03:04:26;;;;;;;;;;;8.60;88.90;;;;;;5101779;28;19927;-68
2024/01/04 03:06:53;;;;;;;;;;;8.60;89.00;;;;;;5105048;28;19928;-69
2024/01/04 03:09:27;;;;;;;;;;;8.50;89.10;;;;;;5100567;28;19992;-70
2024/01/04 03:12:02;;;;;;;;;;;8.50;89.20;;;;;;5104599;28;19963;-70
2024/01/04 03:14:36;;;;;;;;;;;8.60;89.30;;;;;;5103400;28;19939;-72
2024/01/04 03:17:09;;;;;;;;;;;8.50;89.40;;;;;;5100860;28;19928;-70
2024/01/04 03:19:42;;;;;;;;;;;8.50;89.60;;;;;;5101969;28;19932;-70
2024/01/04 03:22:15;;;;;;;;;;;8.50;89.70;;;;;;5105459;28;20409;-70
2024/01/04 03:24:49;;;;;;;;;;;8.50;89.80;;;;;;5097166;28;19939;-69
2024/01/04 03:27:23;;;;;;;;;;;8.50;89.80;;;;;;5097005;28;20014;-70
2024/01/04 03:29:56;;;;;;;;;;;8.50;89.90;;;;;;5096337;28;20387;-72
2024/01/04 03:32:29;;;;;;;;;;;8.40;90.00;;;;;;5098462;28;19935;-70
2024/01/04 03:35:02;;;;;;;;;;;8.40;90.00;;;;;;5093814;28;20404;-71
2024/01/04 03:37:35;;;;;;;;;;;8.40;89.90;;;;;;5097144;28;19950;-69
2024/01/04 03:40:10;;;;;;;;;;;8.40;89.90;;;;;;5097627;28;19935;-70
2024/01/04 03:42:43;;;;;;;;;;;8.40;89.90;;;;;;5096569;28;19989;-70
2024/01/04 03:45:16;;;;;;;;;;;8.40;89.90;;;;;;5095294;28;19924;-71
2024/01/04 03:47:49;;;;;;;;;;;8.40;89.80;;;;;;5095645;28;20010;-71
2024/01/04 03:50:22;;;;;;;;;;;8.40;89.80;;;;;;5098816;28;19928;-71
2024/01/04 03:52:55;;;;;;;;;;;8.40;89.80;;;;;;5096711;28;19972;-70
2024/01/04 03:55:29;;;;;;;;;;;8.40;89.80;;;;;;5097535;28;19964;-70
2024/01/04 03:58:03;;;;;;;;;;;8.40;89.80;;;;;;5098784;28;19933;-70
2024/01/04 04:00:36;;;;;;;;;;;8.40;89.90;;;;;;5093180;28;19977;-70
2024/01/04 04:03:09;;;;;;;;;;;8.50;89.90;;;;;;5097908;28;19924;-70
2024/01/04 04:05:44;;;;;;;;;;;8.50;89.80;;;;;;5096383;28;20018;-70
2024/01/04 04:08:17;;;;;;;;;;;8.40;89.90;;;;;;5094568;28;20038;-71
2024/01/04 04:10:51;;;;;;;;;;;8.40;89.90;;;;;;5095926;28;19932;-71
2024/01/04 04:13:25;;;;;;;;;;;8.40;89.90;;;;;;5096166;28;20434;-71
2024/01/04 04:15:58;;;;;;;;;;;8.40;89.70;;;;;;5094253;28;20034;-71
2024/01/04 04:18:31;;;;;;;;;;;8.40;89.80;;;;;;5094968;28;19955;-70
2024/01/04 04:21:04;;;;;;;;;;;8.40;89.80;;;;;;5095305;28;19968;-71
2024/01/04 04:23:37;;;;;;;;;;;8.40;89.80;;;;;;5095409;28;19973;-70
2024/01/04 04:26:18;;;;;;;;;;;8.40;89.90;;;;;;5095409;28;20379;-71
2024/01/04 04:28:51;;;;;;;;;;;8.40;89.90;;;;;;5095312;28;19988;-73
2024/01/04 04:31:24;;;;;;;;;;;8.40;89.90;;;;;;5095751;28;19934;-71
2024/01/04 04:33:57;;;;;;;;;;;8.40;89.90;;;;;;5094894;28;19935;-72
2024/01/04 04:36:30;;;;;;;;;;;8.40;89.90;;;;;;5095725;28;20016;-70
2024/01/04 04:39:04;;;;;;;;;;;8.40;89.90;;;;;;5096623;28;19924;-72
2024/01/04 04:41:39;;;;;;;;;;;8.40;90.00;;;;;;5095859;28;19930;-71
2024/01/04 04:44:12;;;;;;;;;;;8.40;90.00;;;;;;5091590;28;20039;-70
2024/01/04 04:46:45;;;;;;;;;;;8.40;90.10;;;;;;5090939;28;19927;-71
2024/01/04 04:49:19;;;;;;;;;;;8.40;90.10;;;;;;5091882;28;19932;-71
2024/01/04 04:51:52;;;;;;;;;;;8.40;90.00;;;;;;5096971;28;20019;-72
2024/01/04 04:54:25;;;;;;;;;;;8.40;90.10;;;;;;5095200;28;19930;-72
2024/01/04 04:57:02;;;;;;;;;;;8.40;90.00;;;;;;5097938;28;20008;-71
2024/01/04 04:59:36;;;;;;;;;;;8.40;90.00;;;;;;5098118;28;20026;-72
2024/01/04 05:02:10;;;;;;;;;;;8.40;90.00;;;;;;5095488;28;20417;-71
2024/01/04 05:04:43;;;;;;;;;;;8.40;90.00;;;;;;5093585;28;19930;-71
2024/01/04 05:07:16;;;;;;;;;;;8.40;89.90;;;;;;5097979;28;20371;-70
2024/01/04 05:09:49;;;;;;;;;;;8.40;89.90;;;;;;5098006;28;20388;-72
2024/01/04 05:12:23;;;;;;;;;;;8.40;89.80;;;;;;5096876;28;20006;-71
2024/01/04 05:14:57;;;;;;;;;;;8.40;89.90;;;;;;5094087;28;19935;-61
2024/01/04 05:17:30;;;;;;;;;;;8.40;89.90;;;;;;5097119;28;19934;-61
2024/01/04 05:20:04;;;;;;;;;;;8.40;89.80;;;;;;5092149;28;20027;-60
2024/01/04 05:22:37;;;;;;;;;;;8.40;89.80;;;;;;5096379;28;20409;-61
2024/01/04 05:25:04;;;;;;;;;;;8.40;89.90;;;;;;5075223;28;19924;-61
2024/01/04 05:27:39;;;;;;;;;;;8.40;89.70;;;;;;5075825;28;19940;-60
2024/01/04 05:30:12;;;;;;;;;;;8.40;89.80;;;;;;5076623;28;19928;-62
2024/01/04 05:32:45;;;;;;;;;;;8.40;89.70;;;;;;5076111;28;19928;-62
2024/01/04 05:35:18;;;;;;;;;;;8.40;89.70;;;;;;5077127;28;20026;-61
2024/01/04 05:37:51;;;;;;;;;;;8.40;89.70;;;;;;5073804;28;19932;-63
2024/01/04 05:40:24;;;;;;;;;;;8.40;89.70;;;;;;5078010;28;20430;-60
2024/01/04 05:42:58;;;;;;;;;;;8.30;89.70;;;;;;5074815;28;20310;-61
2024/01/04 05:45:32;;;;;;;;;;;8.30;89.70;;;;;;5074139;28;19931;-61
2024/01/04 05:48:05;;;;;;;;;;;8.40;89.80;;;;;;5077146;28;19968;-61
2024/01/04 05:50:38;;;;;;;;;;;8.40;89.80;;;;;;5073056;28;19929;-61
2024/01/04 05:53:11;;;;;;;;;;;8.40;89.90;;;;;;5076917;28;19951;-60
2024/01/04 05:55:44;;;;;;;;;;;8.40;89.90;;;;;;5076840;28;19950;-61
2024/01/04 05:58:18;;;;;;;;;;;8.30;90.00;;;;;;5077716;28;19924;-61
2024/01/04 06:00:51;;;;;;;;;;;8.30;90.00;;;;;;5074181;28;19933;-59
2024/01/04 06:03:24;;;;;;;;;;;8.40;89.90;;;;;;5077606;28;20019;-60
2024/01/04 06:05:57;;;;;;;;;;;8.30;89.90;;;;;;5073768;28;19928;-61
2024/01/04 06:08:30;;;;;;;;;;;8.40;89.90;;;;;;5078691;28;19928;-60
2024/01/04 06:11:06;;;;;;;;;;;8.30;89.90;;;;;;5076325;28;19933;-61
2024/01/04 06:13:40;;;;;;;;;;;8.30;90.00;;;;;;5075394;28;19928;-62
2024/01/04 06:16:14;;;;;;;;;;;8.30;89.90;;;;;;5077732;28;19928;-61
2024/01/04 06:18:47;;;;;;;;;;;8.20;90.00;;;;;;5078543;28;20191;-61
2024/01/04 06:21:20;;;;;;;;;;;8.20;90.00;;;;;;5073113;28;19924;-62
2024/01/04 06:23:54;;;;;;;;;;;8.20;90.00;;;;;;5089623;28;19933;-62
2024/01/04 06:26:34;;;;;;;;;;;8.20;90.10;;;;;;5099293;28;19963;-61
2024/01/04 06:29:08;;;;;;;;;;;8.30;90.20;;;;;;5085736;28;20011;-60
2024/01/04 06:31:41;;;;;;;;;;;8.30;90.30;;;;;;5091887;28;19924;-60
2024/01/04 06:34:14;;;;;;;;;;;8.20;90.40;;;;;;5099709;28;19968;-60
2024/01/04 06:36:48;;;;;;;;;;;8.30;90.40;;;;;;5095023;28;19931;-62
2024/01/04 06:39:21;;;;;;;;;;;8.30;90.40;;;;;;5100632;28;19928;-61
2024/01/04 06:41:54;;;;;;;;;;;8.20;90.50;;;;;;5097913;28;20374;-60
2024/01/04 06:44:28;;;;;;;;;;;8.30;90.60;;;;;;5101223;28;20280;-61
2024/01/04 06:47:02;;;;;;;;;;;8.20;90.40;;;;;;5096542;28;19924;-61
2024/01/04 06:49:35;;;;;;;;;;;8.20;90.50;;;;;;5099623;28;19931;-61
2024/01/04 06:52:08;;;;;;;;;;;8.20;90.30;;;;;;5096599;28;19935;-61
2024/01/04 06:54:35;;;;;;;;;;;8.20;90.20;;;;;;5097730;28;19932;-61
2024/01/04 06:57:08;;;;;;;;;;;8.20;89.80;;;;;;5097580;28;19938;-61
2024/01/04 06:59:43;;;;;;;;;;;8.10;89.80;;;;;;5102159;28;19982;-61
2024/01/04 07:02:16;;;;;;;;;;;8.20;89.60;;;;;;5098548;28;19936;-60
2024/01/04 07:04:49;;;;;;;;;;;8.10;89.60;;;;;;5086328;28;19934;-61
2024/01/04 07:07:22;;;;;;;;;;;8.10;89.50;;;;;;5097371;28;19971;-60
2024/01/04 07:09:50;;;;;;;;;;;8.10;89.20;;;;;;5096252;28;19932;-60
2024/01/04 07:12:39;;;;;;;;;;;8.10;89.30;;;;;;5098229;28;20262;-61
2024/01/04 07:15:21;;;;;;;;;;;8.20;89.30;;;;;;5096974;28;19934;-61
2024/01/04 07:17:54;;;;;;;;;;;8.10;89.20;;;;;;5095995;28;19934;-60
2024/01/04 07:20:27;;;;;;;;;;;8.10;89.10;;;;;;5096820;28;19931;-60
2024/01/04 07:22:54;;;;;;;;;;;8.10;89.20;;;;;;5099651;28;20282;-61
2024/01/04 07:25:27;;;;;;;;;;;8.10;89.20;;;;;;5097729;28;20011;-62
2024/01/04 07:28:00;;;;;;;;;;;8.00;89.20;;;;;;5097687;28;19931;-62
2024/01/04 07:30:35;;;;;;;;;;;8.10;89.20;;;;;;5097372;28;19924;-61
2024/01/04 07:33:02;;;;;;;;;;;8.10;89.30;;;;;;5098978;28;19928;-61
2024/01/04 07:35:35;;;;;;;;;;;8.10;89.40;;;;;;5096305;28;19924;-63
2024/01/04 07:38:09;;;;;;;;;;;8.00;89.40;;;;;;5096293;28;19989;-62
2024/01/04 07:40:42;;;;;;;;;;;8.00;89.50;;;;;;5097503;28;19945;-64
2024/01/04 07:43:15;;;;;;;;;;;8.00;89.50;;;;;;5099069;28;19950;-63
2024/01/04 07:45:49;;;;;;;;;;;8.00;89.60;;;;;;5096703;28;19927;-62
2024/01/04 07:48:25;;;;;;;;;;;8.00;89.60;;;;;;5099202;28;19932;-62
2024/01/04 07:50:59;;;;;;;;;;;8.00;89.70;;;;;;5097143;28;19934;-63
2024/01/04 07:53:26;;;;;;;;;;;8.00;89.70;;;;;;5091181;28;20018;-63
2024/01/04 07:56:00;;;;;;;;;;;8.00;89.70;;;;;;5094802;28;19924;-62
2024/01/04 07:58:33;;;;;;;;;;;8.00;89.70;;;;;;5099266;28;20339;-65
2024/01/04 08:01:08;;;;;;;;;;;8.10;89.70;;;;;;5096205;28;20405;-63
2024/01/04 08:03:41;;;;;;;;;;;8.10;89.60;;;;;;5080474;28;19932;-62
2024/01/04 08:06:15;;;;;;;;;;;8.10;89.80;;;;;;5097536;28;19967;-63
2024/01/04 08:08:48;;;;;;;;;;;8.10;89.80;;;;;;5094187;28;19944;-62
2024/01/04 08:11:22;;;;;;;;;;;8.10;89.80;;;;;;5095296;28;19977;-63
2024/01/04 08:13:55;;;;;;;;;;;8.10;89.90;;;;;;5095919;28;20003;-63
2024/01/04 08:16:30;;;;;;;;;;;8.10;89.90;;;;;;5098097;28;20412;-62
2024/01/04 08:19:03;;;;;;;;;;;8.10;89.90;;;;;;5096921;28;20013;-63
2024/01/04 08:21:36;;;;;;;;;;;8.10;89.90;;;;;;5095796;28;19924;-62
2024/01/04 08:24:09;;;;;;;;;;;8.20;90.20;;;;;;5096834;28;20007;-62
2024/01/04 08:26:42;;;;;;;;;;;8.10;90.00;;;;;;5096102;28;20365;-63
2024/01/04 08:29:15;;;;;;;;;;;8.20;90.00;;;;;;5095376;28;20012;-62
2024/01/04 08:31:50;;;;;;;;;;;8.20;90.00;;;;;;5095958;28;19928;-63
2024/01/04 08:34:23;;;;;;;;;;;8.20;90.20;;;;;;5094599;28;19932;-62
2024/01/04 08:36:56;;;;;;;;;;;8.10;90.20;;;;;;5096924;28;19924;-63
2024/01/04 08:39:31;;;;;;;;;;;8.10;90.20;;;;;;5089783;28;19993;-62
2024/01/04 08:42:05;;;;;;;;;;;8.10;90.30;;;;;;5096765;28;20400;-62
2024/01/04 08:44:38;;;;;;;;;;;8.20;90.50;;;;;;5075681;28;19924;-59
2024/01/04 08:47:13;;;;;;;;;;;8.20;90.40;;;;;;5097169;28;19953;-59
2024/01/04 08:49:46;;;;;;;;;;;8.20;90.40;;;;;;5096753;28;20374;-59
2024/01/04 08:52:19;;;;;;;;;;;8.20;90.40;;;;;;5094311;28;19996;-60
2024/01/04 08:54:52;;;;;;;;;;;8.20;90.50;;;;;;5095943;28;20306;-60
2024/01/04 08:57:25;;;;;;;;;;;8.20;90.50;;;;;;5094461;28;20404;-60
2024/01/04 08:59:58;;;;;;;;;;;8.20;90.40;;;;;;5095583;28;20402;-60
2024/01/04 09:02:33;;;;;;;;;;;8.20;90.40;;;;;;5096576;28;19931;-61
2024/01/04 09:05:07;;;;;;;;;;;8.20;90.30;;;;;;5096841;28;19946;-60
2024/01/04 09:07:40;;;;;;;;;;;8.20;90.30;;;;;;5094960;28;20024;-60
2024/01/04 09:10:13;;;;;;;;;;;8.20;90.30;;;;;;5095953;28;19932;-61
2024/01/04 09:12:47;;;;;;;;;;;8.20;90.20;;;;;;5096799;28;19936;-59
2024/01/04 09:15:20;;;;;;;;;;;8.20;90.20;;;;;;5093555;28;19923;-59
2024/01/04 09:17:55;;;;;;;;;;;8.20;90.30;;;;;;5095849;28;19935;-63
2024/01/04 09:20:28;;;;;;;;;;;8.20;90.20;;;;;;5095687;28;19928;-62
2024/01/04 09:23:02;;;;;;;;;;;8.30;90.20;;;;;;5096452;28;20560;-62
2024/01/04 09:25:35;;;;;;;;;;;8.30;90.10;;;;;;5095805;28;19932;-61
2024/01/04 09:28:09;;;;;;;;;;;8.30;90.00;;;;;;5097573;28;19924;-62
2024/01/04 09:30:42;;;;;;;;;;;8.40;90.00;;;;;;5097216;28;20446;-60
2024/01/04 09:33:17;;;;;;;;;;;8.40;89.90;;;;;;5096352;28;20034;-60
2024/01/04 09:35:50;;;;;;;;;;;8.30;90.00;;;;;;5091565;28;20383;-60
2024/01/04 09:38:32;;;;;;;;;;;8.30;90.00;;;;;;5091839;28;19927;-61
2024/01/04 09:41:08;;;;;;;;;;;8.30;90.00;;;;;;5095717;28;20358;-61
2024/01/04 09:43:42;;;;;;;;;;;8.40;89.90;;;;;;5096780;28;19928;-61
2024/01/04 09:46:18;;;;;;;;;;;8.40;89.90;;;;;;5096213;28;20023;-61
2024/01/04 09:48:56;;;;;;;;;;;8.40;89.80;;;;;;5099750;28;19924;-60
2024/01/04 09:51:30;;;;;;;;;;;8.40;89.70;;;;;;5099856;28;19927;-59
2024/01/04 09:54:03;;;;;;;;;;;8.40;89.70;;;;;;5101579;28;19924;-61
2024/01/04 09:56:38;;;;;;;;;;;8.40;89.70;;;;;;5092737;28;19924;-61
2024/01/04 09:59:05;;;;;;;;;;;8.40;89.80;;;;;;5098556;28;19931;-63
2024/01/04 10:01:39;;;;;;;;;;;8.40;89.80;;;;;;5093832;28;19967;-64
2024/01/04 10:04:16;;;;;;;;;;;8.40;89.80;;;;;;5100308;28;19925;-63
2024/01/04 10:06:51;;;;;;;;;;;8.40;90.00;;;;;;5098697;28;19924;-62
2024/01/04 10:09:25;;;;;;;;;;;8.40;90.00;;;;;;5100136;28;19928;-67
2024/01/04 10:12:05;;;;;;;;;;;8.50;90.00;;;;;;5098441;28;19924;-63
2024/01/04 10:14:38;;;;;;;;;;;8.50;90.10;;;;;;5103140;28;19928;-63
2024/01/04 10:17:11;;;;;;;;;;;8.50;90.10;;;;;;5092580;28;20019;-61
2024/01/04 10:19:46;;;;;;;;;;;8.50;90.00;;;;;;5099628;28;19932;-63
2024/01/04 10:22:21;;;;;;;;;;;8.60;90.10;;;;;;5099053;28;20307;-65
2024/01/04 10:24:54;;;;;;;;;;;8.60;90.00;;;;;;5099545;28;19973;-61
2024/01/04 10:27:27;;;;;;;;;;;8.70;90.00;;;;;;5100316;28;20344;-62
2024/01/04 10:30:03;;;;;;;;;;;8.60;89.90;;;;;;5101293;28;19982;-63
2024/01/04 10:32:36;;;;;;;;;;;8.60;89.90;;;;;;5099763;28;19967;-63
2024/01/04 10:35:06;;;;;;;;;;;8.60;89.90;;;;;;5098437;28;19932;-63
2024/01/04 10:37:39;;;;;;;;;;;8.60;89.90;;;;;;5096566;28;19931;-62
2024/01/04 10:40:19;;;;;;;;;;;8.70;89.90;;;;;;5100009;28;19923;-62
2024/01/04 10:42:54;;;;;;;;;;;8.70;89.80;;;;;;5097256;28;19924;-62
2024/01/04 10:45:29;;;;;;;;;;;8.70;89.80;;;;;;5096743;28;19936;-64
2024/01/04 10:47:56;;;;;;;;;;;8.70;89.80;;;;;;5097697;28;19935;-62
2024/01/04 10:50:31;;;;;;;;;;;8.70;89.70;;;;;;5098350;28;19928;-62
2024/01/04 10:53:06;;;;;;;;;;;8.80;89.70;;;;;;5097721;28;20011;-62
2024/01/04 10:55:40;;;;;;;;;;;8.80;89.60;;;;;;5097054;28;19927;-61
2024/01/04 10:58:06;;;;;;;;;;;8.90;89.50;;;;;;5097861;28;19935;-61
2024/01/04 11:00:40;;;;;;;;;;;8.90;89.50;;;;;;5095928;28;20367;-62
2024/01/04 11:03:14;;;;;;;;;;;8.90;89.40;;;;;;5096339;28;19931;-62
2024/01/04 11:05:48;;;;;;;;;;;8.80;89.40;;;;;;5098784;28;20463;-59
2024/01/04 11:08:22;;;;;;;;;;;8.80;89.50;;;;;;5098337;28;19931;-60
2024/01/04 11:10:56;;;;;;;;;;;8.80;89.40;;;;;;5098988;28;20007;-60
2024/01/04 11:13:29;;;;;;;;;;;8.80;89.50;;;;;;5098379;28;19928;-59
2024/01/04 11:16:08;;;;;;;;;;;8.80;89.40;;;;;;5097567;28;19953;-59
2024/01/04 11:18:49;;;;;;;;;;;8.80;89.50;;;;;;5096059;28;19962;-60
2024/01/04 11:21:32;;;;;;;;;;;8.80;89.60;;;;;;5090922;28;19924;-60
2024/01/04 11:24:07;;;;;;;;;;;8.70;89.60;;;;;;5096538;28;19994;-60
2024/01/04 11:26:49;;;;;;;;;;;8.70;89.70;;;;;;5097543;28;20406;-62
2024/01/04 11:29:23;;;;;;;;;;;8.70;89.80;;;;;;5099178;28;20014;-61
2024/01/04 11:31:58;;;;;;;;;;;8.70;89.80;;;;;;5098138;28;19934;-59
2024/01/04 11:34:31;;;;;;;;;;;8.70;89.90;;;;;;5098285;28;19924;-59
2024/01/04 11:37:15;;;;;;;;;;;8.70;90.10;;;;;;5074906;28;19959;-60
2024/01/04 11:39:54;;;;;;;;;;;8.70;90.20;;;;;;5096852;28;20010;-60
2024/01/04 11:42:31;;;;;;;;;;;8.70;90.10;;;;;;5098181;28;20310;-59
2024/01/04 11:45:05;;;;;;;;;;;8.70;90.20;;;;;;5099261;28;19939;-60
2024/01/04 11:47:39;;;;;;;;;;;8.70;90.10;;;;;;5094447;28;20083;-60
2024/01/04 11:50:15;;;;;;;;;;;8.70;90.00;;;;;;5095805;28;19928;-60
2024/01/04 11:52:50;;;;;;;;;;;8.70;90.10;;;;;;5079282;28;19932;-58
2024/01/04 11:55:24;;;;;;;;;;;8.70;90.00;;;;;;5099399;28;20754;-60
2024/01/04 11:58:08;;;;;;;;;;;8.70;90.00;;;;;;5096495;28;19928;-61
2024/01/04 12:00:47;;;;;;;;;;;8.80;90.00;;;;;;5098098;28;20467;-58
2024/01/04 12:03:21;;;;;;;;;;;8.90;89.90;;;;;;5097504;28;19935;-60
2024/01/04 12:05:55;;;;;;;;;;;8.90;89.80;;;;;;5095834;28;20019;-59
2024/01/04 12:08:29;;;;;;;;;;;9.00;89.80;;;;;;5098443;28;20009;-59
2024/01/04 12:11:04;;;;;;;;;;;9.10;89.60;;;;;;5095662;28;19928;-60
2024/01/04 12:13:37;;;;;;;;;;;9.10;89.50;;;;;;5093464;28;19930;-61
2024/01/04 12:16:10;;;;;;;;;;;9.10;89.30;;;;;;5098477;28;19930;-70
2024/01/04 12:18:45;;;;;;;;;;;9.10;89.10;;;;;;5096795;28;21175;-71
2024/01/04 12:21:18;;;;;;;;;;;9.00;88.90;;;;;;5096167;28;20021;-71
2024/01/04 12:23:53;;;;;;;;;;;9.10;89.00;;;;;;5096520;28;20391;-72
2024/01/04 12:26:28;;;;;;;;;;;9.00;88.70;;;;;;5105160;28;20155;-70
2024/01/04 12:29:08;;;;;;;;;;;9.00;88.60;;;;;;5103453;28;19946;-72
2024/01/04 12:31:42;;;;;;;;;;;9.00;88.40;;;;;;5104968;28;20008;-71
2024/01/04 12:34:14;;;;;;;;;;;9.00;88.30;;;;;;5105523;28;19958;-71
2024/01/04 12:36:47;;;;;;;;;;;9.10;88.30;;;;;;5106613;28;21578;-70
2024/01/04 12:39:22;;;;;;;;;;;9.00;88.40;;;;;;5104461;28;19924;-72
2024/01/04 12:41:55;;;;;;;;;;;9.00;88.20;;;;;;5102779;28;19924;-70
2024/01/04 12:44:29;;;;;;;;;;;9.00;88.30;;;;;;5105890;28;20382;-70
2024/01/04 12:47:08;;;;;;;;;;;8.90;88.30;;;;;;5103996;28;19959;-71
2024/01/04 12:49:44;;;;;;;;;;;8.90;88.30;;;;;;5106743;28;19977;-70
2024/01/04 12:52:12;;;;;;;;;;;8.90;88.30;;;;;;5100612;28;19923;-72
2024/01/04 12:54:47;;;;;;;;;;;9.00;88.10;;;;;;5092297;28;19927;-71
2024/01/04 12:57:22;;;;;;;;;;;8.90;88.20;;;;;;5099774;28;20382;-71
2024/01/04 12:59:54;;;;;;;;;;;8.90;88.20;;;;;;5101506;28;19927;-70
2024/01/04 13:02:27;;;;;;;;;;;8.90;88.30;;;;;;5103552;28;20298;-69
2024/01/04 13:05:00;;;;;;;;;;;9.00;88.40;;;;;;5101380;28;19934;-71
2024/01/04 13:07:34;;;;;;;;;;;8.90;88.30;;;;;;5101730;28;19935;-73
2024/01/04 13:10:09;;;;;;;;;;;8.90;88.20;;;;;;5101595;28;20310;-71
2024/01/04 13:12:42;;;;;;;;;;;8.90;88.10;;;;;;5099501;28;19928;-70
2024/01/04 13:15:16;;;;;;;;;;;8.90;88.10;;;;;;5100521;28;20019;-70
2024/01/04 13:17:48;;;;;;;;;;;8.80;87.90;;;;;;5100146;28;19932;-70
2024/01/04 13:20:21;;;;;;;;;;;8.80;87.70;;;;;;5100737;28;20408;-70
2024/01/04 13:22:55;;;;;;;;;;;8.80;87.70;;;;;;5100966;28;20026;-69
2024/01/04 13:25:30;;;;;;;;;;;8.80;87.60;;;;;;5104403;28;20275;-66
2024/01/04 13:28:04;;;;;;;;;;;8.80;87.50;;;;;;5101039;28;19950;-66
2024/01/04 13:30:37;;;;;;;;;;;8.90;87.60;;;;;;5095195;28;19928;-68
2024/01/04 13:33:10;;;;;;;;;;;8.80;87.60;;;;;;5104113;28;20390;-67
2024/01/04 13:35:43;;;;;;;;;;;8.80;87.60;;;;;;5105701;28;20017;-66
2024/01/04 13:38:16;;;;;;;;;;;8.90;87.70;;;;;;5102470;28;19923;-68
2024/01/04 13:40:52;;;;;;;;;;;8.90;87.60;;;;;;5101829;28;19923;-65
2024/01/04 13:43:25;;;;;;;;;;;8.80;87.40;;;;;;5101786;28;19942;-68
2024/01/04 13:45:58;;;;;;;;;;;8.80;87.50;;;;;;5103392;28;20298;-67
2024/01/04 13:48:32;;;;;;;;;;;8.80;87.20;;;;;;5102260;28;19924;-67
2024/01/04 13:51:06;;;;;;;;;;;8.70;87.20;;;;;;5103778;28;20289;-68
2024/01/04 13:53:39;;;;;;;;;;;8.80;87.10;;;;;;5103956;28;20309;-68
2024/01/04 13:56:14;;;;;;;;;;;8.80;86.90;;;;;;5099851;28;19934;-68
2024/01/04 13:58:47;;;;;;;;;;;8.80;86.70;;;;;;5101341;28;19928;-67
2024/01/04 14:01:20;;;;;;;;;;;8.80;86.50;;;;;;5101703;28;19923;-67
2024/01/04 14:03:53;;;;;;;;;;;8.70;86.60;;;;;;5100001;28;19954;-67
2024/01/04 14:06:26;;;;;;;;;;;8.70;86.40;;;;;;5105528;28;19973;-66
2024/01/04 14:08:59;;;;;;;;;;;8.80;86.50;;;;;;5102176;28;19955;-66
2024/01/04 14:11:34;;;;;;;;;;;8.80;86.50;;;;;;5102871;28;19955;-66
2024/01/04 14:14:08;;;;;;;;;;;8.80;86.40;;;;;;5095377;28;20280;-65
2024/01/04 14:16:40;;;;;;;;;;;8.70;86.00;;;;;;5104444;28;20010;-64
2024/01/04 14:19:07;;;;;;;;;;;8.90;86.10;;;;;;5103409;28;20005;-65
2024/01/04 14:21:40;;;;;;;;;;;8.90;86.10;;;;;;5102026;28;19935;-64
2024/01/04 14:24:13;;;;;;;;;;;9.00;85.40;;;;;;5096516;28;19928;-63
2024/01/04 14:26:48;;;;;;;;;;;9.10;85.10;;;;;;5096083;28;19928;-64
2024/01/04 14:29:21;;;;;;;;;;;9.20;85.00;;;;;;5091872;28;20349;-66
2024/01/04 14:31:54;;;;;;;;;;;9.20;84.60;;;;;;5095417;28;19924;-64
2024/01/04 14:34:27;;;;;;;;;;;9.20;84.00;;;;;;5072754;28;20318;-58
2024/01/04 14:37:00;;;;;;;;;;;9.20;84.10;;;;;;5097002;28;19930;-60
2024/01/04 14:39:33;;;;;;;;;;;9.20;83.70;;;;;;5095345;28;20008;-62
2024/01/04 14:42:08;;;;;;;;;;;9.20;83.80;;;;;;5096846;28;19924;-59
2024/01/04 14:44:41;;;;;;;;;;;9.30;83.70;;;;;;5096761;28;20016;-60
2024/01/04 14:47:14;;;;;;;;;;;9.30;83.20;;;;;;5097563;28;20015;-60
2024/01/04 14:49:47;;;;;;;;;;;9.30;83.30;;;;;;5098752;28;19924;-59
2024/01/04 14:52:22;;;;;;;;;;;9.30;83.20;;;;;;5098937;28;19932;-59
2024/01/04 14:54:56;;;;;;;;;;;9.40;83.20;;;;;;5097787;28;20294;-59
2024/01/04 14:57:31;;;;;;;;;;;9.30;82.60;;;;;;5097066;28;20297;-61
2024/01/04 15:00:05;;;;;;;;;;;9.40;83.10;;;;;;5097597;28;20397;-60
2024/01/04 15:02:39;;;;;;;;;;;9.40;83.00;;;;;;5098885;28;19924;-59
2024/01/04 15:05:18;;;;;;;;;;;9.40;82.60;;;;;;5095835;28;19930;-60
2024/01/04 15:07:52;;;;;;;;;;;9.40;82.60;;;;;;5096049;28;19977;-60